sensor_id;sensor_type;location;lat;lon;timestamp;temperature;humidity
4245;DHT22;2136;48.502;9.194;2023-03-04T00:02:10;2.90;71.10
4245;DHT22;2136;48.502;9.194;2023-03-04T00:04:37;2.90;71.30
4245;DHT22;2136;48.502;9.194;2023-03-04T00:07:04;3.00;72.20
4245;DHT22;2136;48.502;9.194;2023-03-04T00:09:31;3.00;72.30
4245;DHT22;2136;48.502;9.194;2023-03-04T00:11:58;3.10;71.10
4245;DHT22;2136;48.502;9.194;2023-03-04T00:14:26;3.10;70.60
4245;DHT22;2136;48.502;9.194;2023-03-04T00:16:52;3.10;70.40
4245;DHT22;2136;48.502;9.194;2023-03-04T00:19:19;3.00;70.20
4245;DHT22;2136;48.502;9.194;2023-03-04T00:21:46;3.00;70.50
4245;DHT22;2136;48.502;9.194;2023-03-04T00:24:13;3.00;70.90
4245;DHT22;2136;48.502;9.194;2023-03-04T00:26:40;2.90;71.10
4245;DHT22;2136;48.502;9.194;2023-03-04T00:29:06;2.90;71.30
4245;DHT22;2136;48.502;9.194;2023-03-04T00:31:34;2.90;72.20
4245;DHT22;2136;48.502;9.194;2023-03-04T00:34:01;2.90;71.50
4245;DHT22;2136;48.502;9.194;2023-03-04T00:36:28;2.80;71.20
4245;DHT22;2136;48.502;9.194;2023-03-04T00:38:55;2.80;70.90
4245;DHT22;2136;48.502;9.194;2023-03-04T00:41:22;2.80;70.70
4245;DHT22;2136;48.502;9.194;2023-03-04T00:43:48;2.70;70.50
4245;DHT22;2136;48.502;9.194;2023-03-04T00:46:15;2.70;70.80
4245;DHT22;2136;48.502;9.194;2023-03-04T00:48:43;2.70;71.10
4245;DHT22;2136;48.502;9.194;2023-03-04T00:51:10;2.60;71.10
4245;DHT22;2136;48.502;9.194;2023-03-04T00:53:37;2.60;71.20
4245;DHT22;2136;48.502;9.194;2023-03-04T00:56:04;2.50;71.30
4245;DHT22;2136;48.502;9.194;2023-03-04T00:58:31;2.50;71.50
4245;DHT22;2136;48.502;9.194;2023-03-04T01:00:58;2.50;71.60
4245;DHT22;2136;48.502;9.194;2023-03-04T01:03:25;2.50;71.60
4245;DHT22;2136;48.502;9.194;2023-03-04T01:05:57;2.50;71.60
4245;DHT22;2136;48.502;9.194;2023-03-04T01:08:24;2.40;72.20
4245;DHT22;2136;48.502;9.194;2023-03-04T01:10:51;2.40;72.50
4245;DHT22;2136;48.502;9.194;2023-03-04T01:13:18;2.40;72.70
4245;DHT22;2136;48.502;9.194;2023-03-04T01:15:45;2.40;72.90
4245;DHT22;2136;48.502;9.194;2023-03-04T01:18:11;2.40;73.00
4245;DHT22;2136;48.502;9.194;2023-03-04T01:20:38;2.40;73.20
4245;DHT22;2136;48.502;9.194;2023-03-04T01:23:06;2.40;73.40
4245;DHT22;2136;48.502;9.194;2023-03-04T01:25:33;2.30;73.60
4245;DHT22;2136;48.502;9.194;2023-03-04T01:28:00;2.30;74.00
4245;DHT22;2136;48.502;9.194;2023-03-04T01:30:27;2.30;74.10
4245;DHT22;2136;48.502;9.194;2023-03-04T01:32:54;2.30;74.00
4245;DHT22;2136;48.502;9.194;2023-03-04T01:35:20;2.30;74.10
4245;DHT22;2136;48.502;9.194;2023-03-04T01:37:47;2.30;74.00
4245;DHT22;2136;48.502;9.194;2023-03-04T01:40:16;2.30;74.10
4245;DHT22;2136;48.502;9.194;2023-03-04T01:42:43;2.20;74.10
4245;DHT22;2136;48.502;9.194;2023-03-04T01:45:13;2.20;74.40
4245;DHT22;2136;48.502;9.194;2023-03-04T01:47:43;2.20;74.60
4245;DHT22;2136;48.502;9.194;2023-03-04T01:50:18;2.20;74.90
4245;DHT22;2136;48.502;9.194;2023-03-04T01:52:46;2.20;74.90
4245;DHT22;2136;48.502;9.194;2023-03-04T01:55:18;2.20;74.80
4245;DHT22;2136;48.502;9.194;2023-03-04T01:57:46;2.20;75.00
4245;DHT22;2136;48.502;9.194;2023-03-04T02:00:23;2.20;75.00
4245;DHT22;2136;48.502;9.194;2023-03-04T02:02:52;2.10;75.20
4245;DHT22;2136;48.502;9.194;2023-03-04T02:05:21;2.10;75.20
4245;DHT22;2136;48.502;9.194;2023-03-04T02:07:49;2.10;75.30
4245;DHT22;2136;48.502;9.194;2023-03-04T02:10:18;2.10;75.30
4245;DHT22;2136;48.502;9.194;2023-03-04T02:12:45;2.10;75.30
4245;DHT22;2136;48.502;9.194;2023-03-04T02:15:12;2.10;75.20
4245;DHT22;2136;48.502;9.194;2023-03-04T02:17:39;2.10;75.30
4245;DHT22;2136;48.502;9.194;2023-03-04T02:20:19;2.10;75.10
4245;DHT22;2136;48.502;9.194;2023-03-04T02:22:56;2.00;75.00
4245;DHT22;2136;48.502;9.194;2023-03-04T02:25:30;2.00;75.00
4245;DHT22;2136;48.502;9.194;2023-03-04T02:28:00;2.00;74.60
4245;DHT22;2136;48.502;9.194;2023-03-04T02:30:27;2.00;74.40
4245;DHT22;2136;48.502;9.194;2023-03-04T02:32:54;2.00;74.50
4245;DHT22;2136;48.502;9.194;2023-03-04T02:35:21;2.00;74.60
4245;DHT22;2136;48.502;9.194;2023-03-04T02:37:48;2.00;74.80
4245;DHT22;2136;48.502;9.194;2023-03-04T02:40:20;1.90;74.50
4245;DHT22;2136;48.502;9.194;2023-03-04T02:42:48;1.90;74.70
4245;DHT22;2136;48.502;9.194;2023-03-04T02:45:36;1.90;74.50
4245;DHT22;2136;48.502;9.194;2023-03-04T02:48:04;1.90;74.60
4245;DHT22;2136;48.502;9.194;2023-03-04T02:50:34;1.80;74.40
4245;DHT22;2136;48.502;9.194;2023-03-04T02:53:02;1.80;74.50
4245;DHT22;2136;48.502;9.194;2023-03-04T02:55:29;1.80;74.30
4245;DHT22;2136;48.502;9.194;2023-03-04T02:57:56;1.80;73.80
4245;DHT22;2136;48.502;9.194;2023-03-04T03:00:23;1.70;73.70
4245;DHT22;2136;48.502;9.194;2023-03-04T03:02:51;1.70;74.00
4245;DHT22;2136;48.502;9.194;2023-03-04T03:05:19;1.70;74.10
4245;DHT22;2136;48.502;9.194;2023-03-04T03:07:45;1.70;74.20
4245;DHT22;2136;48.502;9.194;2023-03-04T03:10:12;1.70;74.50
4245;DHT22;2136;48.502;9.194;2023-03-04T03:12:39;1.70;74.50
4245;DHT22;2136;48.502;9.194;2023-03-04T03:15:07;1.70;74.60
4245;DHT22;2136;48.502;9.194;2023-03-04T03:17:34;1.70;74.80
4245;DHT22;2136;48.502;9.194;2023-03-04T03:20:02;1.80;75.00
4245;DHT22;2136;48.502;9.194;2023-03-04T03:22:29;1.70;75.30
4245;DHT22;2136;48.502;9.194;2023-03-04T03:24:56;1.60;75.40
4245;DHT22;2136;48.502;9.194;2023-03-04T03:27:23;1.60;75.30
4245;DHT22;2136;48.502;9.194;2023-03-04T03:29:50;1.60;74.70
4245;DHT22;2136;48.502;9.194;2023-03-04T03:32:17;1.60;74.50
4245;DHT22;2136;48.502;9.194;2023-03-04T03:34:44;1.60;74.80
4245;DHT22;2136;48.502;9.194;2023-03-04T03:37:12;1.60;74.90
4245;DHT22;2136;48.502;9.194;2023-03-04T03:39:39;1.60;75.00
4245;DHT22;2136;48.502;9.194;2023-03-04T03:42:06;1.50;75.10
4245;DHT22;2136;48.502;9.194;2023-03-04T03:44:33;1.50;75.60
4245;DHT22;2136;48.502;9.194;2023-03-04T03:47:00;1.50;75.90
4245;DHT22;2136;48.502;9.194;2023-03-04T03:49:27;1.50;76.10
4245;DHT22;2136;48.502;9.194;2023-03-04T03:51:54;1.50;75.80
4245;DHT22;2136;48.502;9.194;2023-03-04T03:54:22;1.40;75.60
4245;DHT22;2136;48.502;9.194;2023-03-04T03:56:49;1.40;75.50
4245;DHT22;2136;48.502;9.194;2023-03-04T03:59:16;1.40;75.30
4245;DHT22;2136;48.502;9.194;2023-03-04T04:01:43;1.40;75.50
4245;DHT22;2136;48.502;9.194;2023-03-04T04:04:10;1.30;75.60
4245;DHT22;2136;48.502;9.194;2023-03-04T04:06:36;1.30;76.00
4245;DHT22;2136;48.502;9.194;2023-03-04T04:09:03;1.30;76.10
4245;DHT22;2136;48.502;9.194;2023-03-04T04:11:32;1.30;76.20
4245;DHT22;2136;48.502;9.194;2023-03-04T04:13:58;1.30;76.30
4245;DHT22;2136;48.502;9.194;2023-03-04T04:16:25;1.30;75.90
4245;DHT22;2136;48.502;9.194;2023-03-04T04:18:52;1.20;75.80
4245;DHT22;2136;48.502;9.194;2023-03-04T04:21:19;1.20;75.80
4245;DHT22;2136;48.502;9.194;2023-03-04T04:23:46;1.20;75.70
4245;DHT22;2136;48.502;9.194;2023-03-04T04:26:12;1.30;76.00
4245;DHT22;2136;48.502;9.194;2023-03-04T04:28:41;1.20;76.30
4245;DHT22;2136;48.502;9.194;2023-03-04T04:31:08;1.20;76.80
4245;DHT22;2136;48.502;9.194;2023-03-04T04:33:35;1.20;77.10
4245;DHT22;2136;48.502;9.194;2023-03-04T04:36:02;1.10;77.40
4245;DHT22;2136;48.502;9.194;2023-03-04T04:38:30;1.10;77.50
4245;DHT22;2136;48.502;9.194;2023-03-04T04:40:57;1.10;77.70
4245;DHT22;2136;48.502;9.194;2023-03-04T04:43:25;1.10;77.80
4245;DHT22;2136;48.502;9.194;2023-03-04T04:45:53;1.10;77.40
4245;DHT22;2136;48.502;9.194;2023-03-04T04:48:20;1.10;77.20
4245;DHT22;2136;48.502;9.194;2023-03-04T04:50:53;1.10;77.00
4245;DHT22;2136;48.502;9.194;2023-03-04T04:53:20;1.10;76.90
4245;DHT22;2136;48.502;9.194;2023-03-04T04:55:46;1.10;77.10
4245;DHT22;2136;48.502;9.194;2023-03-04T04:58:13;1.10;77.60
4245;DHT22;2136;48.502;9.194;2023-03-04T05:00:40;0.90;77.40
4245;DHT22;2136;48.502;9.194;2023-03-04T05:03:08;1.00;77.40
4245;DHT22;2136;48.502;9.194;2023-03-04T05:05:35;1.00;77.40
4245;DHT22;2136;48.502;9.194;2023-03-04T05:08:02;1.00;77.30
4245;DHT22;2136;48.502;9.194;2023-03-04T05:10:28;1.00;77.20
4245;DHT22;2136;48.502;9.194;2023-03-04T05:12:55;1.00;77.50
4245;DHT22;2136;48.502;9.194;2023-03-04T05:15:22;1.00;77.40
4245;DHT22;2136;48.502;9.194;2023-03-04T05:17:49;1.00;77.40
4245;DHT22;2136;48.502;9.194;2023-03-04T05:20:17;1.00;77.70
4245;DHT22;2136;48.502;9.194;2023-03-04T05:22:44;1.00;78.00
4245;DHT22;2136;48.502;9.194;2023-03-04T05:25:11;0.90;78.10
4245;DHT22;2136;48.502;9.194;2023-03-04T05:27:38;0.90;78.50
4245;DHT22;2136;48.502;9.194;2023-03-04T05:30:06;0.90;78.50
4245;DHT22;2136;48.502;9.194;2023-03-04T05:32:33;0.90;79.00
4245;DHT22;2136;48.502;9.194;2023-03-04T05:34:59;0.90;78.10
4245;DHT22;2136;48.502;9.194;2023-03-04T05:37:27;0.90;78.10
4245;DHT22;2136;48.502;9.194;2023-03-04T05:39:54;0.90;78.80
4245;DHT22;2136;48.502;9.194;2023-03-04T05:42:21;0.90;78.00
4245;DHT22;2136;48.502;9.194;2023-03-04T05:44:48;0.90;77.80
4245;DHT22;2136;48.502;9.194;2023-03-04T05:47:15;0.80;77.50
4245;DHT22;2136;48.502;9.194;2023-03-04T05:49:41;0.80;77.50
4245;DHT22;2136;48.502;9.194;2023-03-04T05:52:09;0.80;77.70
4245;DHT22;2136;48.502;9.194;2023-03-04T05:54:37;0.80;77.80
4245;DHT22;2136;48.502;9.194;2023-03-04T05:57:04;0.70;77.90
4245;DHT22;2136;48.502;9.194;2023-03-04T05:59:31;0.70;77.90
4245;DHT22;2136;48.502;9.194;2023-03-04T06:01:58;0.70;77.70
4245;DHT22;2136;48.502;9.194;2023-03-04T06:04:25;0.70;77.60
4245;DHT22;2136;48.502;9.194;2023-03-04T06:06:51;0.70;77.50
4245;DHT22;2136;48.502;9.194;2023-03-04T06:09:18;0.70;77.40
4245;DHT22;2136;48.502;9.194;2023-03-04T06:11:47;0.70;77.40
4245;DHT22;2136;48.502;9.194;2023-03-04T06:14:14;0.70;77.30
4245;DHT22;2136;48.502;9.194;2023-03-04T06:16:40;0.70;77.50
4245;DHT22;2136;48.502;9.194;2023-03-04T06:19:07;0.70;77.70
4245;DHT22;2136;48.502;9.194;2023-03-04T06:21:34;0.70;77.50
4245;DHT22;2136;48.502;9.194;2023-03-04T06:24:01;0.70;77.40
4245;DHT22;2136;48.502;9.194;2023-03-04T06:26:28;0.70;77.10
4245;DHT22;2136;48.502;9.194;2023-03-04T06:28:56;0.70;77.30
4245;DHT22;2136;48.502;9.194;2023-03-04T06:31:23;0.70;77.50
4245;DHT22;2136;48.502;9.194;2023-03-04T06:33:50;0.70;77.70
4245;DHT22;2136;48.502;9.194;2023-03-04T06:36:16;0.70;77.70
4245;DHT22;2136;48.502;9.194;2023-03-04T06:38:44;0.70;77.70
4245;DHT22;2136;48.502;9.194;2023-03-04T06:41:12;0.70;78.00
4245;DHT22;2136;48.502;9.194;2023-03-04T06:43:39;0.80;77.90
4245;DHT22;2136;48.502;9.194;2023-03-04T06:46:08;0.80;77.50
4245;DHT22;2136;48.502;9.194;2023-03-04T06:48:35;0.90;77.60
4245;DHT22;2136;48.502;9.194;2023-03-04T06:51:06;0.90;77.50
4245;DHT22;2136;48.502;9.194;2023-03-04T06:53:34;1.00;77.60
4245;DHT22;2136;48.502;9.194;2023-03-04T06:56:01;1.00;77.30
4245;DHT22;2136;48.502;9.194;2023-03-04T06:58:27;1.10;77.00
4245;DHT22;2136;48.502;9.194;2023-03-04T07:00:54;1.20;76.10
4245;DHT22;2136;48.502;9.194;2023-03-04T07:03:22;1.20;75.10
4245;DHT22;2136;48.502;9.194;2023-03-04T07:05:49;1.30;74.70
4245;DHT22;2136;48.502;9.194;2023-03-04T07:08:16;1.30;74.60
4245;DHT22;2136;48.502;9.194;2023-03-04T07:10:43;1.40;74.10
4245;DHT22;2136;48.502;9.194;2023-03-04T07:13:09;1.40;73.80
4245;DHT22;2136;48.502;9.194;2023-03-04T07:15:36;1.40;73.30
4245;DHT22;2136;48.502;9.194;2023-03-04T07:18:03;1.50;73.30
4245;DHT22;2136;48.502;9.194;2023-03-04T07:20:31;1.50;73.20
4245;DHT22;2136;48.502;9.194;2023-03-04T07:22:58;1.60;73.40
4245;DHT22;2136;48.502;9.194;2023-03-04T07:25:25;1.70;73.60
4245;DHT22;2136;48.502;9.194;2023-03-04T07:27:52;1.80;73.50
4245;DHT22;2136;48.502;9.194;2023-03-04T07:30:19;1.90;73.30
4245;DHT22;2136;48.502;9.194;2023-03-04T07:32:46;2.00;72.60
4245;DHT22;2136;48.502;9.194;2023-03-04T07:35:13;2.10;72.00
4245;DHT22;2136;48.502;9.194;2023-03-04T07:37:41;2.30;72.10
4245;DHT22;2136;48.502;9.194;2023-03-04T07:40:09;2.40;71.90
4245;DHT22;2136;48.502;9.194;2023-03-04T07:42:36;2.50;71.50
4245;DHT22;2136;48.502;9.194;2023-03-04T07:45:03;2.70;71.30
4245;DHT22;2136;48.502;9.194;2023-03-04T07:47:30;2.80;71.10
4245;DHT22;2136;48.502;9.194;2023-03-04T07:49:57;3.00;71.00
4245;DHT22;2136;48.502;9.194;2023-03-04T07:52:24;3.20;70.60
4245;DHT22;2136;48.502;9.194;2023-03-04T07:54:52;3.30;70.00
4245;DHT22;2136;48.502;9.194;2023-03-04T07:57:19;3.50;69.70
4245;DHT22;2136;48.502;9.194;2023-03-04T07:59:46;3.60;68.90
4245;DHT22;2136;48.502;9.194;2023-03-04T08:02:13;3.80;68.50
4245;DHT22;2136;48.502;9.194;2023-03-04T08:04:40;4.20;67.80
4245;DHT22;2136;48.502;9.194;2023-03-04T08:07:07;4.70;66.40
4245;DHT22;2136;48.502;9.194;2023-03-04T08:09:33;5.00;65.80
4245;DHT22;2136;48.502;9.194;2023-03-04T08:12:02;5.50;64.30
4245;DHT22;2136;48.502;9.194;2023-03-04T08:14:28;6.00;62.10
4245;DHT22;2136;48.502;9.194;2023-03-04T08:16:55;6.50;61.00
4245;DHT22;2136;48.502;9.194;2023-03-04T08:19:22;6.80;59.60
4245;DHT22;2136;48.502;9.194;2023-03-04T08:21:49;7.00;58.30
4245;DHT22;2136;48.502;9.194;2023-03-04T08:24:16;7.10;57.70
4245;DHT22;2136;48.502;9.194;2023-03-04T08:26:44;7.10;57.50
4245;DHT22;2136;48.502;9.194;2023-03-04T08:29:15;6.90;57.40
4245;DHT22;2136;48.502;9.194;2023-03-04T08:31:42;6.70;57.10
4245;DHT22;2136;48.502;9.194;2023-03-04T08:34:11;6.50;57.00
4245;DHT22;2136;48.502;9.194;2023-03-04T08:36:39;6.30;57.50
4245;DHT22;2136;48.502;9.194;2023-03-04T08:39:07;6.20;57.90
4245;DHT22;2136;48.502;9.194;2023-03-04T08:41:34;6.00;58.10
4245;DHT22;2136;48.502;9.194;2023-03-04T08:44:01;5.90;58.70
4245;DHT22;2136;48.502;9.194;2023-03-04T08:46:30;5.80;59.10
4245;DHT22;2136;48.502;9.194;2023-03-04T08:48:57;5.80;59.50
4245;DHT22;2136;48.502;9.194;2023-03-04T08:51:23;5.80;59.50
4245;DHT22;2136;48.502;9.194;2023-03-04T08:53:50;5.80;59.80
4245;DHT22;2136;48.502;9.194;2023-03-04T08:56:17;5.90;60.10
4245;DHT22;2136;48.502;9.194;2023-03-04T08:58:44;5.70;59.60
4245;DHT22;2136;48.502;9.194;2023-03-04T09:01:12;5.80;59.40
4245;DHT22;2136;48.502;9.194;2023-03-04T09:03:41;5.60;59.40
4245;DHT22;2136;48.502;9.194;2023-03-04T09:06:11;5.60;59.70
4245;DHT22;2136;48.502;9.194;2023-03-04T09:08:39;5.70;60.20
4245;DHT22;2136;48.502;9.194;2023-03-04T09:11:06;5.50;60.20
4245;DHT22;2136;48.502;9.194;2023-03-04T09:13:33;5.50;60.30
4245;DHT22;2136;48.502;9.194;2023-03-04T09:16:01;5.40;60.30
4245;DHT22;2136;48.502;9.194;2023-03-04T09:18:28;5.40;60.40
4245;DHT22;2136;48.502;9.194;2023-03-04T09:20:56;5.40;60.30
4245;DHT22;2136;48.502;9.194;2023-03-04T09:23:23;5.30;60.70
4245;DHT22;2136;48.502;9.194;2023-03-04T09:25:49;5.40;60.90
4245;DHT22;2136;48.502;9.194;2023-03-04T09:28:18;5.20;61.00
4245;DHT22;2136;48.502;9.194;2023-03-04T09:30:45;5.20;61.90
4245;DHT22;2136;48.502;9.194;2023-03-04T09:33:12;5.20;61.10
4245;DHT22;2136;48.502;9.194;2023-03-04T09:35:39;5.20;61.40
4245;DHT22;2136;48.502;9.194;2023-03-04T09:38:07;5.20;61.40
4245;DHT22;2136;48.502;9.194;2023-03-04T09:40:38;5.20;61.40
4245;DHT22;2136;48.502;9.194;2023-03-04T09:43:11;5.10;61.40
4245;DHT22;2136;48.502;9.194;2023-03-04T09:45:41;5.10;61.40
4245;DHT22;2136;48.502;9.194;2023-03-04T09:48:13;5.10;61.60
4245;DHT22;2136;48.502;9.194;2023-03-04T09:50:52;5.20;61.90
4245;DHT22;2136;48.502;9.194;2023-03-04T09:53:28;5.00;61.90
4245;DHT22;2136;48.502;9.194;2023-03-04T09:56:01;5.00;62.20
4245;DHT22;2136;48.502;9.194;2023-03-04T09:58:38;5.00;62.40
4245;DHT22;2136;48.502;9.194;2023-03-04T10:01:11;5.20;62.70
4245;DHT22;2136;48.502;9.194;2023-03-04T10:03:44;5.00;62.80
4245;DHT22;2136;48.502;9.194;2023-03-04T10:06:16;5.00;62.00
4245;DHT22;2136;48.502;9.194;2023-03-04T10:08:51;5.00;62.20
4245;DHT22;2136;48.502;9.194;2023-03-04T10:11:24;5.10;62.40
4245;DHT22;2136;48.502;9.194;2023-03-04T10:14:03;5.20;62.40
4245;DHT22;2136;48.502;9.194;2023-03-04T10:16:36;5.10;62.30
4245;DHT22;2136;48.502;9.194;2023-03-04T10:19:20;5.10;62.30
4245;DHT22;2136;48.502;9.194;2023-03-04T10:21:50;5.20;62.50
4245;DHT22;2136;48.502;9.194;2023-03-04T10:24:20;5.20;62.90
4245;DHT22;2136;48.502;9.194;2023-03-04T10:26:51;5.30;62.20
4245;DHT22;2136;48.502;9.194;2023-03-04T10:29:21;5.30;61.70
4245;DHT22;2136;48.502;9.194;2023-03-04T10:31:49;5.40;61.20
4245;DHT22;2136;48.502;9.194;2023-03-04T10:34:17;5.40;61.30
4245;DHT22;2136;48.502;9.194;2023-03-04T10:36:55;5.40;61.40
4245;DHT22;2136;48.502;9.194;2023-03-04T10:39:27;5.40;61.20
4245;DHT22;2136;48.502;9.194;2023-03-04T10:41:58;5.40;61.00
4245;DHT22;2136;48.502;9.194;2023-03-04T10:44:26;5.40;60.70
4245;DHT22;2136;48.502;9.194;2023-03-04T10:46:54;5.40;60.40
4245;DHT22;2136;48.502;9.194;2023-03-04T10:49:22;5.30;60.60
4245;DHT22;2136;48.502;9.194;2023-03-04T10:51:53;5.30;61.00
4245;DHT22;2136;48.502;9.194;2023-03-04T10:54:40;5.20;61.10
4245;DHT22;2136;48.502;9.194;2023-03-04T10:57:14;5.20;61.10
4245;DHT22;2136;48.502;9.194;2023-03-04T10:59:46;5.20;61.10
4245;DHT22;2136;48.502;9.194;2023-03-04T11:02:25;5.20;61.20
4245;DHT22;2136;48.502;9.194;2023-03-04T11:05:06;5.30;61.60
4245;DHT22;2136;48.502;9.194;2023-03-04T11:07:38;5.40;61.90
4245;DHT22;2136;48.502;9.194;2023-03-04T11:10:15;5.40;61.80
4245;DHT22;2136;48.502;9.194;2023-03-04T11:12:48;5.40;61.60
4245;DHT22;2136;48.502;9.194;2023-03-04T11:15:20;5.40;61.60
4245;DHT22;2136;48.502;9.194;2023-03-04T11:17:51;5.40;61.50
4245;DHT22;2136;48.502;9.194;2023-03-04T11:20:27;5.50;61.20
4245;DHT22;2136;48.502;9.194;2023-03-04T11:22:56;5.60;60.90
4245;DHT22;2136;48.502;9.194;2023-03-04T11:25:30;5.60;60.80
4245;DHT22;2136;48.502;9.194;2023-03-04T11:28:01;5.60;61.00
4245;DHT22;2136;48.502;9.194;2023-03-04T11:30:35;5.60;61.40
4245;DHT22;2136;48.502;9.194;2023-03-04T11:33:16;5.60;61.70
4245;DHT22;2136;48.502;9.194;2023-03-04T11:35:56;5.60;61.70
4245;DHT22;2136;48.502;9.194;2023-03-04T11:38:30;5.60;61.50
4245;DHT22;2136;48.502;9.194;2023-03-04T11:41:03;5.60;60.80
4245;DHT22;2136;48.502;9.194;2023-03-04T11:43:34;5.60;60.70
4245;DHT22;2136;48.502;9.194;2023-03-04T11:46:14;5.70;60.90
4245;DHT22;2136;48.502;9.194;2023-03-04T11:48:52;5.80;60.90
4245;DHT22;2136;48.502;9.194;2023-03-04T11:51:27;5.80;60.30
4245;DHT22;2136;48.502;9.194;2023-03-04T11:54:05;5.80;60.00
4245;DHT22;2136;48.502;9.194;2023-03-04T11:56:38;5.80;59.90
4245;DHT22;2136;48.502;9.194;2023-03-04T11:59:25;5.80;60.00
4245;DHT22;2136;48.502;9.194;2023-03-04T12:02:03;5.80;60.10
4245;DHT22;2136;48.502;9.194;2023-03-04T12:04:47;5.80;60.30
4245;DHT22;2136;48.502;9.194;2023-03-04T12:07:34;5.90;60.40
4245;DHT22;2136;48.502;9.194;2023-03-04T12:10:14;6.00;60.40
4245;DHT22;2136;48.502;9.194;2023-03-04T12:13:00;6.10;60.10
4245;DHT22;2136;48.502;9.194;2023-03-04T12:15:35;6.20;59.90
4245;DHT22;2136;48.502;9.194;2023-03-04T12:18:21;6.30;59.50
4245;DHT22;2136;48.502;9.194;2023-03-04T12:21:00;6.30;59.20
4245;DHT22;2136;48.502;9.194;2023-03-04T12:23:48;6.40;59.30
4245;DHT22;2136;48.502;9.194;2023-03-04T12:26:24;6.60;59.60
4245;DHT22;2136;48.502;9.194;2023-03-04T12:29:01;6.80;59.30
4245;DHT22;2136;48.502;9.194;2023-03-04T12:31:36;7.10;59.20
4245;DHT22;2136;48.502;9.194;2023-03-04T12:34:27;7.40;58.80
4245;DHT22;2136;48.502;9.194;2023-03-04T12:37:10;7.60;57.60
4245;DHT22;2136;48.502;9.194;2023-03-04T12:39:44;7.70;56.40
4245;DHT22;2136;48.502;9.194;2023-03-04T12:42:21;7.80;56.80
4245;DHT22;2136;48.502;9.194;2023-03-04T12:44:58;7.90;56.10
4245;DHT22;2136;48.502;9.194;2023-03-04T12:47:34;8.20;55.80
4245;DHT22;2136;48.502;9.194;2023-03-04T12:50:24;8.40;55.00
4245;DHT22;2136;48.502;9.194;2023-03-04T12:53:01;8.50;54.10
4245;DHT22;2136;48.502;9.194;2023-03-04T12:55:35;8.60;53.80
4245;DHT22;2136;48.502;9.194;2023-03-04T12:58:03;8.50;53.20
4245;DHT22;2136;48.502;9.194;2023-03-04T13:00:41;8.50;53.50
4245;DHT22;2136;48.502;9.194;2023-03-04T13:03:13;8.40;53.20
4245;DHT22;2136;48.502;9.194;2023-03-04T13:05:52;8.40;53.20
4245;DHT22;2136;48.502;9.194;2023-03-04T13:08:30;8.40;52.90
4245;DHT22;2136;48.502;9.194;2023-03-04T13:11:01;8.40;52.90
4245;DHT22;2136;48.502;9.194;2023-03-04T13:13:38;8.40;52.80
4245;DHT22;2136;48.502;9.194;2023-03-04T13:16:27;8.50;52.70
4245;DHT22;2136;48.502;9.194;2023-03-04T13:18:55;8.60;53.00
4245;DHT22;2136;48.502;9.194;2023-03-04T13:21:24;8.90;53.10
4245;DHT22;2136;48.502;9.194;2023-03-04T13:23:52;9.20;52.50
4245;DHT22;2136;48.502;9.194;2023-03-04T13:26:28;9.30;51.90
4245;DHT22;2136;48.502;9.194;2023-03-04T13:29:18;9.40;51.20
4245;DHT22;2136;48.502;9.194;2023-03-04T13:31:59;9.40;50.60
4245;DHT22;2136;48.502;9.194;2023-03-04T13:34:46;9.40;50.80
4245;DHT22;2136;48.502;9.194;2023-03-04T13:37:30;9.40;51.00
4245;DHT22;2136;48.502;9.194;2023-03-04T13:40:23;9.40;50.70
4245;DHT22;2136;48.502;9.194;2023-03-04T13:42:52;9.30;50.80
4245;DHT22;2136;48.502;9.194;2023-03-04T13:45:33;9.40;50.60
4245;DHT22;2136;48.502;9.194;2023-03-04T13:48:05;9.40;50.60
4245;DHT22;2136;48.502;9.194;2023-03-04T13:50:39;9.40;50.10
4245;DHT22;2136;48.502;9.194;2023-03-04T13:53:41;9.20;50.00
4245;DHT22;2136;48.502;9.194;2023-03-04T13:56:30;9.20;50.30
4245;DHT22;2136;48.502;9.194;2023-03-04T13:59:12;8.90;50.10
4245;DHT22;2136;48.502;9.194;2023-03-04T14:01:54;8.90;50.30
4245;DHT22;2136;48.502;9.194;2023-03-04T14:04:27;8.60;50.40
4245;DHT22;2136;48.502;9.194;2023-03-04T14:06:56;8.50;50.90
4245;DHT22;2136;48.502;9.194;2023-03-04T14:09:25;8.40;51.20
4245;DHT22;2136;48.502;9.194;2023-03-04T14:11:53;8.30;51.40
4245;DHT22;2136;48.502;9.194;2023-03-04T14:14:24;8.30;51.50
4245;DHT22;2136;48.502;9.194;2023-03-04T14:16:54;8.30;51.90
4245;DHT22;2136;48.502;9.194;2023-03-04T14:19:25;8.30;52.10
4245;DHT22;2136;48.502;9.194;2023-03-04T14:21:53;8.40;52.20
4245;DHT22;2136;48.502;9.194;2023-03-04T14:24:21;8.60;52.20
4245;DHT22;2136;48.502;9.194;2023-03-04T14:26:49;8.80;51.80
4245;DHT22;2136;48.502;9.194;2023-03-04T14:29:23;8.90;51.60
4245;DHT22;2136;48.502;9.194;2023-03-04T14:31:51;9.00;51.60
4245;DHT22;2136;48.502;9.194;2023-03-04T14:34:25;9.00;51.60
4245;DHT22;2136;48.502;9.194;2023-03-04T14:36:54;9.00;51.30
4245;DHT22;2136;48.502;9.194;2023-03-04T14:39:28;9.10;51.10
4245;DHT22;2136;48.502;9.194;2023-03-04T14:41:58;9.10;51.20
4245;DHT22;2136;48.502;9.194;2023-03-04T14:44:29;9.10;51.10
4245;DHT22;2136;48.502;9.194;2023-03-04T14:47:07;9.10;50.90
4245;DHT22;2136;48.502;9.194;2023-03-04T14:49:37;9.10;50.80
4245;DHT22;2136;48.502;9.194;2023-03-04T14:52:04;8.90;50.20
4245;DHT22;2136;48.502;9.194;2023-03-04T14:54:34;8.80;49.70
4245;DHT22;2136;48.502;9.194;2023-03-04T14:57:20;8.80;50.20
4245;DHT22;2136;48.502;9.194;2023-03-04T14:59:49;8.50;50.50
4245;DHT22;2136;48.502;9.194;2023-03-04T15:02:24;8.50;50.50
4245;DHT22;2136;48.502;9.194;2023-03-04T15:04:59;8.70;50.80
4245;DHT22;2136;48.502;9.194;2023-03-04T15:07:30;8.90;50.80
4245;DHT22;2136;48.502;9.194;2023-03-04T15:09:58;9.10;50.90
4245;DHT22;2136;48.502;9.194;2023-03-04T15:12:28;9.20;50.40
4245;DHT22;2136;48.502;9.194;2023-03-04T15:14:57;9.20;49.80
4245;DHT22;2136;48.502;9.194;2023-03-04T15:17:30;9.30;50.00
4245;DHT22;2136;48.502;9.194;2023-03-04T15:20:18;9.30;49.80
4245;DHT22;2136;48.502;9.194;2023-03-04T15:22:58;9.40;49.50
4245;DHT22;2136;48.502;9.194;2023-03-04T15:25:27;9.40;49.00
4245;DHT22;2136;48.502;9.194;2023-03-04T15:27:54;9.30;48.70
4245;DHT22;2136;48.502;9.194;2023-03-04T15:30:24;9.10;48.40
4245;DHT22;2136;48.502;9.194;2023-03-04T15:32:53;9.00;48.50
4245;DHT22;2136;48.502;9.194;2023-03-04T15:35:22;8.80;48.50
4245;DHT22;2136;48.502;9.194;2023-03-04T15:37:50;8.60;48.80
4245;DHT22;2136;48.502;9.194;2023-03-04T15:40:26;8.50;48.90
4245;DHT22;2136;48.502;9.194;2023-03-04T15:42:54;8.30;49.00
4245;DHT22;2136;48.502;9.194;2023-03-04T15:45:23;8.20;49.00
4245;DHT22;2136;48.502;9.194;2023-03-04T15:47:50;8.00;49.00
4245;DHT22;2136;48.502;9.194;2023-03-04T15:50:19;7.90;49.30
4245;DHT22;2136;48.502;9.194;2023-03-04T15:52:47;7.70;49.30
4245;DHT22;2136;48.502;9.194;2023-03-04T15:55:16;7.60;49.50
4245;DHT22;2136;48.502;9.194;2023-03-04T15:57:44;7.40;49.70
4245;DHT22;2136;48.502;9.194;2023-03-04T16:00:13;7.30;50.00
4245;DHT22;2136;48.502;9.194;2023-03-04T16:02:40;7.10;50.20
4245;DHT22;2136;48.502;9.194;2023-03-04T16:05:07;7.10;50.50
4245;DHT22;2136;48.502;9.194;2023-03-04T16:07:36;6.90;50.70
4245;DHT22;2136;48.502;9.194;2023-03-04T16:10:12;6.80;50.90
4245;DHT22;2136;48.502;9.194;2023-03-04T16:12:40;6.80;51.00
4245;DHT22;2136;48.502;9.194;2023-03-04T16:15:13;6.60;51.40
4245;DHT22;2136;48.502;9.194;2023-03-04T16:17:40;6.60;51.80
4245;DHT22;2136;48.502;9.194;2023-03-04T16:20:10;6.50;51.80
4245;DHT22;2136;48.502;9.194;2023-03-04T16:22:38;6.40;52.10
4245;DHT22;2136;48.502;9.194;2023-03-04T16:25:09;6.40;52.20
4245;DHT22;2136;48.502;9.194;2023-03-04T16:27:37;6.30;52.40
4245;DHT22;2136;48.502;9.194;2023-03-04T16:30:05;6.30;52.60
4245;DHT22;2136;48.502;9.194;2023-03-04T16:32:32;6.20;52.70
4245;DHT22;2136;48.502;9.194;2023-03-04T16:34:59;6.20;52.80
4245;DHT22;2136;48.502;9.194;2023-03-04T16:37:26;6.10;52.80